sensor_id;sensor_type;location;lat;lon;timestamp;pressure;altitude;pressure_sealevel;temperature;humidity
60437;BME280;46289;51.992;4.498;2023-05-25T00:00:11;102845.09;;;10.86;82.24
60437;BME280;46289;51.992;4.498;2023-05-25T00:02:16;102838.97;;;10.86;82.29
60437;BME280;46289;51.992;4.498;2023-05-25T00:04:21;102836.38;;;10.83;81.88
60437;BME280;46289;51.992;4.498;2023-05-25T00:06:31;102836.41;;;10.78;82.26
60437;BME280;46289;51.992;4.498;2023-05-25T00:08:38;102833.78;;;10.76;82.63
60437;BME280;46289;51.992;4.498;2023-05-25T00:10:46;102835.50;;;10.79;82.82
60437;BME280;46289;51.992;4.498;2023-05-25T00:12:53;102843.47;;;10.74;83.00
60437;BME280;46289;51.992;4.498;2023-05-25T00:14:58;102842.50;;;10.82;82.94
60437;BME280;46289;51.992;4.498;2023-05-25T00:17:04;102845.06;;;10.89;83.24
60437;BME280;46289;51.992;4.498;2023-05-25T00:19:11;102833.66;;;10.89;83.32
60437;BME280;46289;51.992;4.498;2023-05-25T00:21:16;102839.78;;;10.89;83.20
60437;BME280;46289;51.992;4.498;2023-05-25T00:23:21;102839.84;;;10.85;83.86
60437;BME280;46289;51.992;4.498;2023-05-25T00:25:28;102832.06;;;10.75;84.00
60437;BME280;46289;51.992;4.498;2023-05-25T00:27:37;102839.97;;;10.72;83.63
60437;BME280;46289;51.992;4.498;2023-05-25T00:29:42;102836.44;;;10.73;83.87
60437;BME280;46289;51.992;4.498;2023-05-25T00:31:47;102830.31;;;10.71;84.70
60437;BME280;46289;51.992;4.498;2023-05-25T00:33:53;102832.97;;;10.70;84.47
60437;BME280;46289;51.992;4.498;2023-05-25T00:35:58;102834.72;;;10.71;84.93
60437;BME280;46289;51.992;4.498;2023-05-25T00:38:04;102838.22;;;10.71;85.75
60437;BME280;46289;51.992;4.498;2023-05-25T00:40:13;102842.47;;;10.86;85.20
60437;BME280;46289;51.992;4.498;2023-05-25T00:42:19;102844.13;;;10.96;85.94
60437;BME280;46289;51.992;4.498;2023-05-25T00:44:27;102848.47;;;11.01;85.08
60437;BME280;46289;51.992;4.498;2023-05-25T00:46:33;102842.28;;;11.03;85.52
60437;BME280;46289;51.992;4.498;2023-05-25T00:48:38;102842.28;;;11.05;85.19
60437;BME280;46289;51.992;4.498;2023-05-25T00:50:43;102848.38;;;11.10;85.95
60437;BME280;46289;51.992;4.498;2023-05-25T00:52:53;102845.66;;;11.16;85.52
60437;BME280;46289;51.992;4.498;2023-05-25T00:55:00;102838.53;;;11.26;85.46
60437;BME280;46289;51.992;4.498;2023-05-25T00:57:07;102840.28;;;11.28;85.44
60437;BME280;46289;51.992;4.498;2023-05-25T00:59:22;102838.47;;;11.33;85.17
60437;BME280;46289;51.992;4.498;2023-05-25T01:01:35;102844.50;;;11.43;85.19
60437;BME280;46289;51.992;4.498;2023-05-25T01:03:45;102846.22;;;11.42;84.88
60437;BME280;46289;51.992;4.498;2023-05-25T01:05:57;102853.25;;;11.43;84.88
60437;BME280;46289;51.992;4.498;2023-05-25T01:08:04;102849.81;;;11.38;84.95
60437;BME280;46289;51.992;4.498;2023-05-25T01:10:13;102857.75;;;11.34;85.10
60437;BME280;46289;51.992;4.498;2023-05-25T01:12:21;102855.16;;;11.29;85.17
60437;BME280;46289;51.992;4.498;2023-05-25T01:14:31;102852.53;;;11.31;85.05
60437;BME280;46289;51.992;4.498;2023-05-25T01:16:42;102858.69;;;11.28;85.39
60437;BME280;46289;51.992;4.498;2023-05-25T01:18:51;102860.47;;;11.26;85.43
60437;BME280;46289;51.992;4.498;2023-05-25T01:21:04;102860.41;;;11.31;85.49
60437;BME280;46289;51.992;4.498;2023-05-25T01:23:14;102862.22;;;11.27;85.17
60437;BME280;46289;51.992;4.498;2023-05-25T01:25:24;102859.59;;;11.24;85.76
60437;BME280;46289;51.992;4.498;2023-05-25T01:27:36;102857.94;;;11.17;86.13
60437;BME280;46289;51.992;4.498;2023-05-25T01:29:45;102858.84;;;11.14;86.22
60437;BME280;46289;51.992;4.498;2023-05-25T01:31:52;102862.38;;;11.12;85.64
60437;BME280;46289;51.992;4.498;2023-05-25T01:33:59;102859.78;;;11.07;86.00
60437;BME280;46289;51.992;4.498;2023-05-25T01:36:07;102864.19;;;11.07;86.13
60437;BME280;46289;51.992;4.498;2023-05-25T01:38:12;102868.63;;;11.02;85.97
60437;BME280;46289;51.992;4.498;2023-05-25T01:40:19;102866.06;;;10.95;86.14
60437;BME280;46289;51.992;4.498;2023-05-25T01:42:24;102867.03;;;10.85;86.59
60437;BME280;46289;51.992;4.498;2023-05-25T01:44:29;102874.97;;;10.79;86.82
60437;BME280;46289;51.992;4.498;2023-05-25T01:46:39;102874.09;;;10.79;86.85
60437;BME280;46289;51.992;4.498;2023-05-25T01:48:59;102868.94;;;10.69;86.97
60437;BME280;46289;51.992;4.498;2023-05-25T01:51:15;102875.94;;;10.67;87.24
60437;BME280;46289;51.992;4.498;2023-05-25T01:53:22;102876.91;;;10.59;87.72
60437;BME280;46289;51.992;4.498;2023-05-25T01:55:33;102885.72;;;10.51;87.71
60437;BME280;46289;51.992;4.498;2023-05-25T01:57:43;102875.19;;;10.51;87.75
60437;BME280;46289;51.992;4.498;2023-05-25T01:59:52;102883.13;;;10.48;87.55
60437;BME280;46289;51.992;4.498;2023-05-25T02:02:04;102878.75;;;10.44;87.47
60437;BME280;46289;51.992;4.498;2023-05-25T02:04:09;102881.44;;;10.38;87.73
60437;BME280;46289;51.992;4.498;2023-05-25T02:06:18;102878.81;;;10.32;88.18
60437;BME280;46289;51.992;4.498;2023-05-25T02:08:23;102887.59;;;10.31;88.03
60437;BME280;46289;51.992;4.498;2023-05-25T02:10:30;102885.84;;;10.27;88.74
60437;BME280;46289;51.992;4.498;2023-05-25T02:12:35;102882.38;;;10.29;88.67
60437;BME280;46289;51.992;4.498;2023-05-25T02:14:40;102886.72;;;10.29;88.75
60437;BME280;46289;51.992;4.498;2023-05-25T02:16:47;102888.50;;;10.28;88.50
60437;BME280;46289;51.992;4.498;2023-05-25T02:18:52;102890.22;;;10.26;89.00
60437;BME280;46289;51.992;4.498;2023-05-25T02:20:59;102884.16;;;10.20;88.63
60437;BME280;46289;51.992;4.498;2023-05-25T02:23:06;102889.41;;;10.20;89.08
60437;BME280;46289;51.992;4.498;2023-05-25T02:25:11;102894.66;;;10.14;89.33
60437;BME280;46289;51.992;4.498;2023-05-25T02:27:17;102881.59;;;10.09;89.11
60437;BME280;46289;51.992;4.498;2023-05-25T02:29:22;102883.38;;;10.04;89.40
60437;BME280;46289;51.992;4.498;2023-05-25T02:31:28;102890.38;;;10.02;89.19
60437;BME280;46289;51.992;4.498;2023-05-25T02:33:34;102899.13;;;9.98;89.66
60437;BME280;46289;51.992;4.498;2023-05-25T02:35:39;102896.53;;;9.96;89.58
60437;BME280;46289;51.992;4.498;2023-05-25T02:37:44;102899.16;;;9.96;89.97
60437;BME280;46289;51.992;4.498;2023-05-25T02:39:54;102899.16;;;9.96;89.90
60437;BME280;46289;51.992;4.498;2023-05-25T02:41:59;102893.00;;;9.97;90.18
60437;BME280;46289;51.992;4.498;2023-05-25T02:44:05;102900.03;;;9.95;89.59
60437;BME280;46289;51.992;4.498;2023-05-25T02:46:10;102897.41;;;9.94;90.57
60437;BME280;46289;51.992;4.498;2023-05-25T02:48:15;102898.31;;;9.91;90.06
60437;BME280;46289;51.992;4.498;2023-05-25T02:50:21;102896.56;;;9.90;91.04
60437;BME280;46289;51.992;4.498;2023-05-25T02:52:26;102893.09;;;9.85;90.18
60437;BME280;46289;51.992;4.498;2023-05-25T02:54:33;102894.84;;;9.83;90.24
60437;BME280;46289;51.992;4.498;2023-05-25T02:56:41;102904.47;;;9.82;90.21
60437;BME280;46289;51.992;4.498;2023-05-25T02:58:46;102903.59;;;9.79;90.36
60437;BME280;46289;51.992;4.498;2023-05-25T03:00:52;102909.78;;;9.72;90.99
60437;BME280;46289;51.992;4.498;2023-05-25T03:02:59;102907.16;;;9.72;90.42
60437;BME280;46289;51.992;4.498;2023-05-25T03:05:06;102901.91;;;9.72;91.65
60437;BME280;46289;51.992;4.498;2023-05-25T03:07:12;102907.16;;;9.72;91.32
60437;BME280;46289;51.992;4.498;2023-05-25T03:09:17;102906.28;;;9.70;91.26
60437;BME280;46289;51.992;4.498;2023-05-25T03:11:22;102908.91;;;9.68;90.73
60437;BME280;46289;51.992;4.498;2023-05-25T03:13:35;102916.75;;;9.71;91.50
60437;BME280;46289;51.992;4.498;2023-05-25T03:15:40;102914.13;;;9.71;91.78
60437;BME280;46289;51.992;4.498;2023-05-25T03:17:45;102915.88;;;9.71;91.84
60437;BME280;46289;51.992;4.498;2023-05-25T03:19:52;102918.50;;;9.74;91.78
60437;BME280;46289;51.992;4.498;2023-05-25T03:21:58;102910.66;;;9.72;91.80
60437;BME280;46289;51.992;4.498;2023-05-25T03:24:03;102909.78;;;9.70;91.91
60437;BME280;46289;51.992;4.498;2023-05-25T03:26:08;102911.50;;;9.71;92.01
60437;BME280;46289;51.992;4.498;2023-05-25T03:28:13;102911.53;;;9.68;91.70
60437;BME280;46289;51.992;4.498;2023-05-25T03:30:23;102917.66;;;9.62;92.13
60437;BME280;46289;51.992;4.498;2023-05-25T03:32:30;102911.56;;;9.57;91.64
60437;BME280;46289;51.992;4.498;2023-05-25T03:34:39;102916.81;;;9.54;91.25
60437;BME280;46289;51.992;4.498;2023-05-25T03:36:46;102908.09;;;9.51;91.43
60437;BME280;46289;51.992;4.498;2023-05-25T03:38:54;102912.47;;;9.47;91.41
60437;BME280;46289;51.992;4.498;2023-05-25T03:40:59;102915.09;;;9.41;91.75
60437;BME280;46289;51.992;4.498;2023-05-25T03:43:04;102917.75;;;9.38;92.39
60437;BME280;46289;51.992;4.498;2023-05-25T03:45:10;102920.34;;;9.36;91.80
60437;BME280;46289;51.992;4.498;2023-05-25T03:47:18;102911.63;;;9.33;91.65
60437;BME280;46289;51.992;4.498;2023-05-25T03:49:23;102917.75;;;9.32;91.99
60437;BME280;46289;51.992;4.498;2023-05-25T03:51:29;102916.88;;;9.31;92.22
60437;BME280;46289;51.992;4.498;2023-05-25T03:53:34;102922.13;;;9.27;92.12
60437;BME280;46289;51.992;4.498;2023-05-25T03:55:39;102923.88;;;9.28;92.66
60437;BME280;46289;51.992;4.498;2023-05-25T03:57:45;102930.00;;;9.28;93.36
60437;BME280;46289;51.992;4.498;2023-05-25T03:59:50;102928.25;;;9.27;92.88
60437;BME280;46289;51.992;4.498;2023-05-25T04:01:55;102925.63;;;9.26;92.63
60437;BME280;46289;51.992;4.498;2023-05-25T04:04:05;102932.63;;;9.28;93.62
60437;BME280;46289;51.992;4.498;2023-05-25T04:06:11;102928.25;;;9.27;93.71
60437;BME280;46289;51.992;4.498;2023-05-25T04:08:20;102925.63;;;9.22;92.54
60437;BME280;46289;51.992;4.498;2023-05-25T04:10:28;102937.00;;;9.21;93.03
60437;BME280;46289;51.992;4.498;2023-05-25T04:12:33;102936.13;;;9.19;92.47
60437;BME280;46289;51.992;4.498;2023-05-25T04:14:38;102934.38;;;9.20;92.11
60437;BME280;46289;51.992;4.498;2023-05-25T04:16:43;102940.50;;;9.20;92.50
60437;BME280;46289;51.992;4.498;2023-05-25T04:18:49;102936.13;;;9.13;92.35
60437;BME280;46289;51.992;4.498;2023-05-25T04:20:58;102937.00;;;9.15;92.26
60437;BME280;46289;51.992;4.498;2023-05-25T04:23:03;102942.25;;;9.20;93.52
60437;BME280;46289;51.992;4.498;2023-05-25T04:25:09;102939.63;;;9.21;92.83
60437;BME280;46289;51.992;4.498;2023-05-25T04:27:15;102943.13;;;9.23;92.82
60437;BME280;46289;51.992;4.498;2023-05-25T04:29:21;102946.63;;;9.27;93.16
60437;BME280;46289;51.992;4.498;2023-05-25T04:31:26;102946.63;;;9.27;92.96
60437;BME280;46289;51.992;4.498;2023-05-25T04:33:32;102940.47;;;9.27;92.78
60437;BME280;46289;51.992;4.498;2023-05-25T04:35:39;102947.47;;;9.31;93.12
60437;BME280;46289;51.992;4.498;2023-05-25T04:37:48;102947.47;;;9.37;92.89
60437;BME280;46289;51.992;4.498;2023-05-25T04:39:56;102948.34;;;9.43;92.86
60437;BME280;46289;51.992;4.498;2023-05-25T04:42:02;102955.31;;;9.49;93.23
60437;BME280;46289;51.992;4.498;2023-05-25T04:44:08;102963.19;;;9.61;93.72
60437;BME280;46289;51.992;4.498;2023-05-25T04:46:14;102956.16;;;9.70;92.63
60437;BME280;46289;51.992;4.498;2023-05-25T04:48:20;102968.34;;;9.81;92.89
60437;BME280;46289;51.992;4.498;2023-05-25T04:50:34;102964.81;;;9.92;92.53
60437;BME280;46289;51.992;4.498;2023-05-25T04:52:41;102959.50;;;10.05;92.73
60437;BME280;46289;51.992;4.498;2023-05-25T04:54:50;102966.47;;;10.22;92.13
60437;BME280;46289;51.992;4.498;2023-05-25T04:56:56;102969.03;;;10.40;91.42
60437;BME280;46289;51.992;4.498;2023-05-25T04:59:02;102967.19;;;10.56;91.49
60437;BME280;46289;51.992;4.498;2023-05-25T05:01:08;102968.81;;;10.71;90.98
60437;BME280;46289;51.992;4.498;2023-05-25T05:03:13;102974.81;;;10.90;90.53
60437;BME280;46289;51.992;4.498;2023-05-25T05:05:18;102967.66;;;11.09;90.06
60437;BME280;46289;51.992;4.498;2023-05-25T05:07:26;102970.13;;;11.27;89.93
60437;BME280;46289;51.992;4.498;2023-05-25T05:09:31;102969.06;;;11.47;89.04
60437;BME280;46289;51.992;4.498;2023-05-25T05:11:38;102974.09;;;11.68;88.84
60437;BME280;46289;51.992;4.498;2023-05-25T05:13:43;102980.06;;;11.85;88.04
60437;BME280;46289;51.992;4.498;2023-05-25T05:15:50;102973.66;;;12.08;87.65
60437;BME280;46289;51.992;4.498;2023-05-25T05:17:55;102982.22;;;12.27;86.92
60437;BME280;46289;51.992;4.498;2023-05-25T05:20:03;102980.22;;;12.44;86.45
60437;BME280;46289;51.992;4.498;2023-05-25T05:22:09;102975.63;;;12.59;84.86
60437;BME280;46289;51.992;4.498;2023-05-25T05:24:17;102978.16;;;12.63;84.38
60437;BME280;46289;51.992;4.498;2023-05-25T05:26:22;102982.06;;;12.96;83.96
60437;BME280;46289;51.992;4.498;2023-05-25T05:28:32;102972.13;;;13.14;83.19
60437;BME280;46289;51.992;4.498;2023-05-25T05:30:37;102972.00;;;13.20;82.37
60437;BME280;46289;51.992;4.498;2023-05-25T05:32:42;102976.00;;;13.43;81.96
60437;BME280;46289;51.992;4.498;2023-05-25T05:34:48;102980.22;;;13.54;81.57
60437;BME280;46289;51.992;4.498;2023-05-25T05:36:52;102982.56;;;13.18;81.60
60437;BME280;46289;51.992;4.498;2023-05-25T05:39:00;102990.16;;;12.84;82.07
60437;BME280;46289;51.992;4.498;2023-05-25T05:41:05;102993.84;;;12.74;82.17
60437;BME280;46289;51.992;4.498;2023-05-25T05:43:14;102990.38;;;12.70;82.88
60437;BME280;46289;51.992;4.498;2023-05-25T05:45:22;102996.47;;;12.74;82.70
60437;BME280;46289;51.992;4.498;2023-05-25T05:47:32;102997.66;;;13.10;82.67
60437;BME280;46289;51.992;4.498;2023-05-25T05:49:40;102992.09;;;13.77;81.84
60437;BME280;46289;51.992;4.498;2023-05-25T05:51:45;102995.38;;;14.32;79.92
60437;BME280;46289;51.992;4.498;2023-05-25T05:53:52;102995.84;;;14.50;76.86
60437;BME280;46289;51.992;4.498;2023-05-25T05:55:58;103001.75;;;14.63;76.02
60437;BME280;46289;51.992;4.498;2023-05-25T05:58:03;103001.47;;;14.77;75.65
60437;BME280;46289;51.992;4.498;2023-05-25T06:00:09;102994.88;;;14.93;73.78
60437;BME280;46289;51.992;4.498;2023-05-25T06:02:17;103002.06;;;14.88;72.54
60437;BME280;46289;51.992;4.498;2023-05-25T06:04:22;103003.88;;;14.86;71.46
60437;BME280;46289;51.992;4.498;2023-05-25T06:06:30;103006.75;;;15.13;71.95
60437;BME280;46289;51.992;4.498;2023-05-25T06:08:38;103008.47;;;15.50;70.46
60437;BME280;46289;51.992;4.498;2023-05-25T06:10:44;103013.97;;;15.42;69.18
60437;BME280;46289;51.992;4.498;2023-05-25T06:12:50;103010.56;;;15.37;67.50
60437;BME280;46289;51.992;4.498;2023-05-25T06:14:57;103004.97;;;15.48;68.76
60437;BME280;46289;51.992;4.498;2023-05-25T06:17:02;103012.78;;;15.87;68.74
60437;BME280;46289;51.992;4.498;2023-05-25T06:19:10;103019.34;;;16.05;67.22
60437;BME280;46289;51.992;4.498;2023-05-25T06:21:15;103006.84;;;16.10;66.65
60437;BME280;46289;51.992;4.498;2023-05-25T06:23:21;103020.78;;;16.16;66.27
60437;BME280;46289;51.992;4.498;2023-05-25T06:25:27;103017.31;;;16.14;66.14
60437;BME280;46289;51.992;4.498;2023-05-25T06:27:32;103019.97;;;15.49;66.49
60437;BME280;46289;51.992;4.498;2023-05-25T06:29:37;103017.59;;;15.04;68.26
60437;BME280;46289;51.992;4.498;2023-05-25T06:31:42;103017.47;;;15.08;69.00
60437;BME280;46289;51.992;4.498;2023-05-25T06:33:47;103020.19;;;14.68;69.94
60437;BME280;46289;51.992;4.498;2023-05-25T06:35:57;103022.28;;;14.54;70.68
60437;BME280;46289;51.992;4.498;2023-05-25T06:38:03;103025.19;;;14.40;71.29
60437;BME280;46289;51.992;4.498;2023-05-25T06:40:09;103028.47;;;14.53;71.73
60437;BME280;46289;51.992;4.498;2023-05-25T06:42:14;103036.34;;;14.56;71.50
60437;BME280;46289;51.992;4.498;2023-05-25T06:44:19;103029.31;;;14.55;71.76
60437;BME280;46289;51.992;4.498;2023-05-25T06:46:24;103026.72;;;14.52;71.42
60437;BME280;46289;51.992;4.498;2023-05-25T06:48:30;103025.16;;;14.41;72.09
60437;BME280;46289;51.992;4.498;2023-05-25T06:50:35;103033.78;;;14.51;72.06
60437;BME280;46289;51.992;4.498;2023-05-25T06:52:43;103041.03;;;14.41;72.02
60437;BME280;46289;51.992;4.498;2023-05-25T06:54:51;103036.31;;;14.57;71.27
60437;BME280;46289;51.992;4.498;2023-05-25T06:56:56;103039.94;;;14.52;71.52
60437;BME280;46289;51.992;4.498;2023-05-25T06:59:02;103048.69;;;14.55;71.10
60437;BME280;46289;51.992;4.498;2023-05-25T07:01:07;103040.34;;;15.11;70.99
60437;BME280;46289;51.992;4.498;2023-05-25T07:03:12;103043.97;;;15.43;69.33
60437;BME280;46289;51.992;4.498;2023-05-25T07:05:18;103054.16;;;15.24;68.70
60437;BME280;46289;51.992;4.498;2023-05-25T07:07:23;103044.16;;;16.04;67.10
60437;BME280;46289;51.992;4.498;2023-05-25T07:09:33;103053.22;;;16.26;65.96
60437;BME280;46289;51.992;4.498;2023-05-25T07:11:39;103051.56;;;16.83;64.68
60437;BME280;46289;51.992;4.498;2023-05-25T07:13:44;103057.41;;;16.93;63.63
60437;BME280;46289;51.992;4.498;2023-05-25T07:15:50;103054.19;;;16.53;65.20
60437;BME280;46289;51.992;4.498;2023-05-25T07:17:56;103064.41;;;16.67;64.96
60437;BME280;46289;51.992;4.498;2023-05-25T07:20:01;103063.81;;;16.28;65.91
60437;BME280;46289;51.992;4.498;2023-05-25T07:22:07;103061.97;;;15.98;66.06
60437;BME280;46289;51.992;4.498;2023-05-25T07:24:13;103061.44;;;15.86;66.90
60437;BME280;46289;51.992;4.498;2023-05-25T07:26:24;103063.28;;;15.82;66.60
60437;BME280;46289;51.992;4.498;2023-05-25T07:28:29;103060.97;;;16.02;66.86
60437;BME280;46289;51.992;4.498;2023-05-25T07:30:35;103059.78;;;16.13;66.10
60437;BME280;46289;51.992;4.498;2023-05-25T07:32:40;103072.41;;;16.65;65.11
60437;BME280;46289;51.992;4.498;2023-05-25T07:34:45;103057.13;;;17.02;63.78
60437;BME280;46289;51.992;4.498;2023-05-25T07:36:53;103057.50;;;17.18;63.82
60437;BME280;46289;51.992;4.498;2023-05-25T07:38:58;103063.53;;;17.49;63.53
60437;BME280;46289;51.992;4.498;2023-05-25T07:41:04;103065.50;;;17.43;62.28
60437;BME280;46289;51.992;4.498;2023-05-25T07:43:12;103062.00;;;17.94;58.43
60437;BME280;46289;51.992;4.498;2023-05-25T07:45:17;103062.75;;;17.97;59.53
60437;BME280;46289;51.992;4.498;2023-05-25T07:47:23;103067.56;;;18.35;57.42
60437;BME280;46289;51.992;4.498;2023-05-25T07:49:31;103067.09;;;18.00;56.70
60437;BME280;46289;51.992;4.498;2023-05-25T07:51:38;103075.47;;;17.89;56.05
60437;BME280;46289;51.992;4.498;2023-05-25T07:53:43;103068.09;;;18.45;56.35
60437;BME280;46289;51.992;4.498;2023-05-25T07:55:48;103073.69;;;19.06;54.27
60437;BME280;46289;51.992;4.498;2023-05-25T07:57:53;103073.25;;;19.17;54.22
60437;BME280;46289;51.992;4.498;2023-05-25T08:00:02;103073.56;;;19.31;52.75
60437;BME280;46289;51.992;4.498;2023-05-25T08:02:09;103075.38;;;18.86;53.79
60437;BME280;46289;51.992;4.498;2023-05-25T08:04:14;103079.81;;;18.40;53.77
60437;BME280;46289;51.992;4.498;2023-05-25T08:06:25;103081.66;;;18.62;53.94
60437;BME280;46289;51.992;4.498;2023-05-25T08:08:31;103076.44;;;18.35;54.98
60437;BME280;46289;51.992;4.498;2023-05-25T08:10:37;103087.16;;;18.09;54.80
60437;BME280;46289;51.992;4.498;2023-05-25T08:12:42;103086.38;;;18.07;54.87
60437;BME280;46289;51.992;4.498;2023-05-25T08:14:50;103088.28;;;18.74;53.81
60437;BME280;46289;51.992;4.498;2023-05-25T08:16:58;103090.31;;;18.91;53.26
60437;BME280;46289;51.992;4.498;2023-05-25T08:19:03;103087.47;;;19.38;52.59
60437;BME280;46289;51.992;4.498;2023-05-25T08:21:08;103086.78;;;19.12;51.99
60437;BME280;46289;51.992;4.498;2023-05-25T08:23:14;103085.00;;;18.91;53.54
60437;BME280;46289;51.992;4.498;2023-05-25T08:25:21;103083.69;;;19.23;51.59
60437;BME280;46289;51.992;4.498;2023-05-25T08:27:26;103088.97;;;18.55;53.05
60437;BME280;46289;51.992;4.498;2023-05-25T08:29:34;103105.44;;;18.19;53.86
60437;BME280;46289;51.992;4.498;2023-05-25T08:31:39;103104.34;;;18.49;53.74
60437;BME280;46289;51.992;4.498;2023-05-25T08:33:49;103103.16;;;18.32;54.35
60437;BME280;46289;51.992;4.498;2023-05-25T08:35:54;103110.84;;;18.16;54.83
60437;BME280;46289;51.992;4.498;2023-05-25T08:38:00;103109.66;;;18.00;55.26
60437;BME280;46289;51.992;4.498;2023-05-25T08:40:07;103108.56;;;18.06;55.40
60437;BME280;46289;51.992;4.498;2023-05-25T08:42:13;103105.44;;;17.94;55.48
60437;BME280;46289;51.992;4.498;2023-05-25T08:44:18;103104.31;;;17.75;55.55
60437;BME280;46289;51.992;4.498;2023-05-25T08:46:29;103106.00;;;17.77;55.90
60437;BME280;46289;51.992;4.498;2023-05-25T08:48:35;103110.78;;;17.93;56.11
60437;BME280;46289;51.992;4.498;2023-05-25T08:50:47;103113.88;;;18.54;54.29
60437;BME280;46289;51.992;4.498;2023-05-25T08:52:54;103106.41;;;18.88;52.60
60437;BME280;46289;51.992;4.498;2023-05-25T08:55:03;103115.03;;;18.24;53.26
60437;BME280;46289;51.992;4.498;2023-05-25T08:57:12;103106.41;;;17.92;54.46
60437;BME280;46289;51.992;4.498;2023-05-25T08:59:27;103104.72;;;17.89;54.86
60437;BME280;46289;51.992;4.498;2023-05-25T09:01:37;103109.28;;;17.59;54.74
60437;BME280;46289;51.992;4.498;2023-05-25T09:03:43;103118.22;;;17.57;54.98
60437;BME280;46289;51.992;4.498;2023-05-25T09:05:57;103114.44;;;17.37;55.77
60437;BME280;46289;51.992;4.498;2023-05-25T09:08:04;103114.91;;;17.50;55.64
60437;BME280;46289;51.992;4.498;2023-05-25T09:10:11;103116.72;;;17.48;55.53
60437;BME280;46289;51.992;4.498;2023-05-25T09:12:20;103117.06;;;17.39;55.92
60437;BME280;46289;51.992;4.498;2023-05-25T09:14:26;103121.06;;;17.24;56.81
60437;BME280;46289;51.992;4.498;2023-05-25T09:16:31;103118.00;;;17.09;56.90
60437;BME280;46289;51.992;4.498;2023-05-25T09:18:37;103118.16;;;17.31;56.91
60437;BME280;46289;51.992;4.498;2023-05-25T09:20:42;103123.59;;;17.28;57.24
60437;BME280;46289;51.992;4.498;2023-05-25T09:22:51;103123.78;;;17.22;57.54
60437;BME280;46289;51.992;4.498;2023-05-25T09:24:57;103117.78;;;17.16;57.80
60437;BME280;46289;51.992;4.498;2023-05-25T09:27:03;103115.84;;;17.21;58.32
60437;BME280;46289;51.992;4.498;2023-05-25T09:29:12;103119.81;;;17.07;58.74
60437;BME280;46289;51.992;4.498;2023-05-25T09:31:18;103112.56;;;17.13;59.10
60437;BME280;46289;51.992;4.498;2023-05-25T09:33:24;103114.72;;;17.01;57.99
60437;BME280;46289;51.992;4.498;2023-05-25T09:35:30;103117.03;;;16.82;58.32
60437;BME280;46289;51.992;4.498;2023-05-25T09:37:35;103119.09;;;16.73;58.72
60437;BME280;46289;51.992;4.498;2023-05-25T09:39:44;103111.91;;;16.78;58.82
60437;BME280;46289;51.992;4.498;2023-05-25T09:41:50;103115.19;;;16.86;58.45
60437;BME280;46289;51.992;4.498;2023-05-25T09:43:57;103117.03;;;16.82;57.97
60437;BME280;46289;51.992;4.498;2023-05-25T09:46:15;103115.56;;;17.02;57.72
60437;BME280;46289;51.992;4.498;2023-05-25T09:48:23;103114.31;;;17.14;57.33
60437;BME280;46289;51.992;4.498;2023-05-25T09:50:34;103118.13;;;17.33;57.29
60437;BME280;46289;51.992;4.498;2023-05-25T09:52:40;103114.84;;;17.51;56.33
60437;BME280;46289;51.992;4.498;2023-05-25T09:54:52;103113.72;;;17.59;55.79
60437;BME280;46289;51.992;4.498;2023-05-25T09:57:01;103113.81;;;17.55;54.00
60437;BME280;46289;51.992;4.498;2023-05-25T09:59:06;103117.69;;;17.72;54.78
60437;BME280;46289;51.992;4.498;2023-05-25T10:01:11;103122.41;;;18.15;51.95
60437;BME280;46289;51.992;4.498;2023-05-25T10:03:19;103111.72;;;18.64;51.19
60437;BME280;46289;51.992;4.498;2023-05-25T10:05:24;103109.47;;;19.65;49.79
60437;BME280;46289;51.992;4.498;2023-05-25T10:07:32;103106.63;;;19.47;47.61
60437;BME280;46289;51.992;4.498;2023-05-25T10:09:40;103108.44;;;19.69;47.57
60437;BME280;46289;51.992;4.498;2023-05-25T10:11:51;103103.41;;;20.62;47.50
60437;BME280;46289;51.992;4.498;2023-05-25T10:13:59;103102.88;;;20.14;47.53
60437;BME280;46289;51.992;4.498;2023-05-25T10:16:10;103109.25;;;19.27;48.68
60437;BME280;46289;51.992;4.498;2023-05-25T10:18:24;103105.56;;;19.09;49.79
60437;BME280;46289;51.992;4.498;2023-05-25T10:20:32;103107.84;;;19.18;49.80
60437;BME280;46289;51.992;4.498;2023-05-25T10:22:43;103103.31;;;19.20;49.76
60437;BME280;46289;51.992;4.498;2023-05-25T10:24:53;103110.81;;;19.11;49.86
60437;BME280;46289;51.992;4.498;2023-05-25T10:27:07;103109.84;;;18.91;48.53
60437;BME280;46289;51.992;4.498;2023-05-25T10:29:29;103111.38;;;18.97;48.93
60437;BME280;46289;51.992;4.498;2023-05-25T10:31:36;103110.88;;;18.87;48.38
60437;BME280;46289;51.992;4.498;2023-05-25T10:33:42;103110.09;;;19.07;47.87
60437;BME280;46289;51.992;4.498;2023-05-25T10:35:54;103113.56;;;19.09;47.84
60437;BME280;46289;51.992;4.498;2023-05-25T10:38:11;103107.94;;;19.37;47.83
60437;BME280;46289;51.992;4.498;2023-05-25T10:40:18;103113.97;;;19.42;47.76
60437;BME280;46289;51.992;4.498;2023-05-25T10:42:28;103120.00;;;19.25;48.27
60437;BME280;46289;51.992;4.498;2023-05-25T10:44:37;103128.28;;;19.40;48.39
60437;BME280;46289;51.992;4.498;2023-05-25T10:46:42;103128.22;;;19.19;48.08
60437;BME280;46289;51.992;4.498;2023-05-25T10:48:51;103126.31;;;19.01;48.32
60437;BME280;46289;51.992;4.498;2023-05-25T10:51:01;103127.16;;;19.25;48.56
60437;BME280;46289;51.992;4.498;2023-05-25T10:53:08;103128.56;;;19.34;49.03
60437;BME280;46289;51.992;4.498;2023-05-25T10:55:17;103133.25;;;19.27;49.47
60437;BME280;46289;51.992;4.498;2023-05-25T10:57:23;103131.16;;;19.13;51.40
60437;BME280;46289;51.992;4.498;2023-05-25T10:59:32;103127.56;;;19.14;51.97
60437;BME280;46289;51.992;4.498;2023-05-25T11:01:51;103132.22;;;19.09;52.86
60437;BME280;46289;51.992;4.498;2023-05-25T11:04:13;103136.13;;;19.22;52.30
60437;BME280;46289;51.992;4.498;2023-05-25T11:06:21;103131.28;;;18.88;52.25